PWSweather.com
Personal Weather Stations
Station Observations
KTXDALLA25
Heritage Village Phase Ii, Frisco, TX 75036

Heritage Village Phase IiFrisco, TX 75036

Lat: 33.14465, Lon: -96.873

Elevation: 600

Station Type: Davis Vantage Pro2

http://weather.speedshifter.info

Latest ConditionsUpdated 7:09:47 PM CDT Saturday, May 25, 2019
Currently Today's Max Today's Min Today's Average
Temperature 86.4°F30.2°C 92.1°F33.4°C 72.7°F22.6°C 81.9°F27.7°C
Dew Point 70.3°F21.3°C 73.0°F22.8°C 69.1°F20.6°C 71.0°F21.7°C
Winds 4.0 mph SE6.4 kmh SE 6.0 mph -9.7 kmh - - 2.7 mph 4.3 kmh
Wind Gusts 11.0 mph17.7 kmh 16.1 mph25.9 kmh - -
Humidity 59% 89% 51% 71%
Pressure 29.86 in1011.2 mb 29.98 in1015.2 mb 29.85 in1010.8 mb -
Hour Temp Dew Point Humidity Winds Wind Gusts Pressure Precip Precip Rate Daily Precip Total
07:09 PM 86.4°F30.2°C 70.3°F21.3°C 59% 4.0 mph SE6.4 kmh SE 11.0 mph17.7 kmh 29.86 in1011.2 mb 0.00 in0.0 mm 0.00 in0.0 mm 0.00 in0.0 mm
07:04 PM 86.5°F30.3°C 70.5°F21.4°C 59% 4.0 mph SSW6.4 kmh SSW 13.0 mph20.9 kmh 29.86 in1011.2 mb 0.00 in0.0 mm 0.00 in0.0 mm 0.00 in0.0 mm
06:59 PM 86.7°F30.4°C 70.7°F21.5°C 59% 4.9 mph S7.9 kmh S 11.0 mph17.7 kmh 29.85 in1010.8 mb 0.00 in0.0 mm 0.00 in0.0 mm 0.00 in0.0 mm
06:54 PM 87.1°F30.6°C 71.1°F21.7°C 59% 4.9 mph SSE7.9 kmh SSE 12.1 mph19.5 kmh 29.85 in1010.8 mb 0.00 in0.0 mm 0.00 in0.0 mm 0.00 in0.0 mm
06:49 PM 87.4°F30.8°C 70.9°F21.6°C 58% 4.0 mph SSW6.4 kmh SSW 11.0 mph17.7 kmh 29.85 in1010.8 mb 0.00 in0.0 mm 0.00 in0.0 mm 0.00 in0.0 mm
06:44 PM 87.6°F30.9°C 71.1°F21.7°C 58% 4.0 mph SSE6.4 kmh SSE 10.1 mph16.3 kmh 29.86 in1011.2 mb 0.00 in0.0 mm 0.00 in0.0 mm 0.00 in0.0 mm
06:39 PM 88.2°F31.2°C 71.6°F22.0°C 58% 2.9 mph SSE4.7 kmh SSE 10.1 mph16.3 kmh 29.86 in1011.2 mb 0.00 in0.0 mm 0.00 in0.0 mm 0.00 in0.0 mm
06:34 PM 88.3°F31.3°C 71.2°F21.8°C 57% 4.0 mph S6.4 kmh S 12.1 mph19.5 kmh 29.87 in1011.5 mb 0.00 in0.0 mm 0.00 in0.0 mm 0.00 in0.0 mm
06:29 PM 88.3°F31.3°C 71.2°F21.8°C 57% 4.0 mph SSE6.4 kmh SSE 11.0 mph17.7 kmh 29.87 in1011.5 mb 0.00 in0.0 mm 0.00 in0.0 mm 0.00 in0.0 mm
06:24 PM 88.5°F31.4°C 71.4°F21.9°C 57% 2.9 mph SSE4.7 kmh SSE 14.1 mph22.7 kmh 29.87 in1011.5 mb 0.00 in0.0 mm 0.00 in0.0 mm 0.00 in0.0 mm
06:19 PM 88.5°F31.4°C 70.9°F21.6°C 56% 4.0 mph SSE6.4 kmh SSE 6.9 mph11.1 kmh 29.87 in1011.5 mb 0.00 in0.0 mm 0.00 in0.0 mm 0.00 in0.0 mm
06:14 PM 88.9°F31.6°C 71.1°F21.7°C 56% 4.9 mph S7.9 kmh S 13.0 mph20.9 kmh 29.87 in1011.5 mb 0.00 in0.0 mm 0.00 in0.0 mm 0.00 in0.0 mm
06:09 PM 89.1°F31.7°C 70.7°F21.5°C 55% 4.9 mph SE7.9 kmh SE 10.1 mph16.3 kmh 29.88 in1011.9 mb 0.00 in0.0 mm 0.00 in0.0 mm 0.00 in0.0 mm
06:04 PM 89.6°F32.0°C 71.2°F21.8°C 55% 4.9 mph SE7.9 kmh SE 14.1 mph22.7 kmh 29.88 in1011.9 mb 0.00 in0.0 mm 0.00 in0.0 mm 0.00 in0.0 mm
05:58 PM 90.0°F32.2°C 71.6°F22.0°C 55% 4.0 mph SE6.4 kmh SE 14.1 mph22.7 kmh 29.88 in1011.9 mb 0.00 in0.0 mm 0.00 in0.0 mm 0.00 in0.0 mm
05:53 PM 90.0°F32.2°C 71.6°F22.0°C 55% 4.0 mph SE6.4 kmh SE 12.1 mph19.5 kmh 29.88 in1011.9 mb 0.00 in0.0 mm 0.00 in0.0 mm 0.00 in0.0 mm
05:48 PM 90.1°F32.3°C 71.8°F22.1°C 55% 4.0 mph SE6.4 kmh SE 12.1 mph19.5 kmh 29.88 in1011.9 mb 0.00 in0.0 mm 0.00 in0.0 mm 0.00 in0.0 mm
05:43 PM 90.1°F32.3°C 71.2°F21.8°C 54% 4.0 mph S6.4 kmh S 11.0 mph17.7 kmh 29.89 in1012.2 mb 0.00 in0.0 mm 0.00 in0.0 mm 0.00 in0.0 mm
05:38 PM 90.1°F32.3°C 71.2°F21.8°C 54% 4.9 mph SE7.9 kmh SE 13.0 mph20.9 kmh 29.88 in1011.9 mb 0.00 in0.0 mm 0.00 in0.0 mm 0.00 in0.0 mm
05:33 PM 90.1°F32.3°C 71.2°F21.8°C 54% 4.9 mph SSE7.9 kmh SSE 13.0 mph20.9 kmh 29.89 in1012.2 mb 0.00 in0.0 mm 0.00 in0.0 mm 0.00 in0.0 mm
05:28 PM 89.8°F32.1°C 71.4°F21.9°C 55% 4.9 mph SSE7.9 kmh SSE 14.1 mph22.7 kmh 29.89 in1012.2 mb 0.00 in0.0 mm 0.00 in0.0 mm 0.00 in0.0 mm
05:23 PM 89.4°F31.9°C 71.1°F21.7°C 55% 4.9 mph S7.9 kmh S 10.1 mph16.3 kmh 29.89 in1012.2 mb 0.00 in0.0 mm 0.00 in0.0 mm 0.00 in0.0 mm
05:18 PM 89.8°F32.1°C 70.9°F21.6°C 54% 4.0 mph S6.4 kmh S 12.1 mph19.5 kmh 29.89 in1012.2 mb 0.00 in0.0 mm 0.00 in0.0 mm 0.00 in0.0 mm
05:13 PM 90.0°F32.2°C 71.6°F22.0°C 55% 2.9 mph SE4.7 kmh SE 10.1 mph16.3 kmh 29.89 in1012.2 mb 0.00 in0.0 mm 0.00 in0.0 mm 0.00 in0.0 mm
05:08 PM 90.1°F32.3°C 70.7°F21.5°C 53% 4.0 mph SSE6.4 kmh SSE 13.0 mph20.9 kmh 29.89 in1012.2 mb 0.00 in0.0 mm 0.00 in0.0 mm 0.00 in0.0 mm
05:03 PM 90.3°F32.4°C 71.4°F21.9°C 54% 4.0 mph SE6.4 kmh SE 12.1 mph19.5 kmh 29.89 in1012.2 mb 0.00 in0.0 mm 0.00 in0.0 mm 0.00 in0.0 mm
04:58 PM 91.2°F32.9°C 71.1°F21.7°C 52% 4.0 mph S6.4 kmh S 10.1 mph16.3 kmh 29.89 in1012.2 mb 0.00 in0.0 mm 0.00 in0.0 mm 0.00 in0.0 mm
04:53 PM 91.4°F33.0°C 72.3°F22.4°C 54% 4.9 mph S7.9 kmh S 12.1 mph19.5 kmh 29.89 in1012.2 mb 0.00 in0.0 mm 0.00 in0.0 mm 0.00 in0.0 mm
04:48 PM 91.2°F32.9°C 71.6°F22.0°C 53% 4.0 mph S6.4 kmh S 12.1 mph19.5 kmh 29.89 in1012.2 mb 0.00 in0.0 mm 0.00 in0.0 mm 0.00 in0.0 mm
04:43 PM 91.2°F32.9°C 71.6°F22.0°C 53% 4.0 mph E6.4 kmh E 8.1 mph13.0 kmh 29.89 in1012.2 mb 0.00 in0.0 mm 0.00 in0.0 mm 0.00 in0.0 mm
04:38 PM 91.0°F32.8°C 72.1°F22.3°C 54% 2.9 mph S4.7 kmh S 13.0 mph20.9 kmh 29.89 in1012.2 mb 0.00 in0.0 mm 0.00 in0.0 mm 0.00 in0.0 mm
04:33 PM 90.7°F32.6°C 72.3°F22.4°C 55% 4.0 mph E6.4 kmh E 11.0 mph17.7 kmh 29.89 in1012.2 mb 0.00 in0.0 mm 0.00 in0.0 mm 0.00 in0.0 mm
04:28 PM 90.5°F32.5°C 71.6°F22.0°C 54% 4.0 mph SE6.4 kmh SE 11.0 mph17.7 kmh 29.89 in1012.2 mb 0.00 in0.0 mm 0.00 in0.0 mm 0.00 in0.0 mm
04:23 PM 90.5°F32.5°C 72.1°F22.3°C 55% 4.0 mph S6.4 kmh S 10.1 mph16.3 kmh 29.89 in1012.2 mb 0.00 in0.0 mm 0.00 in0.0 mm 0.00 in0.0 mm
04:18 PM 90.1°F32.3°C 71.8°F22.1°C 55% 4.0 mph SE6.4 kmh SE 13.0 mph20.9 kmh 29.90 in1012.5 mb 0.00 in0.0 mm 0.00 in0.0 mm 0.00 in0.0 mm
04:13 PM 90.1°F32.3°C 71.8°F22.1°C 55% 4.9 mph SE7.9 kmh SE 13.0 mph20.9 kmh 29.90 in1012.5 mb 0.00 in0.0 mm 0.00 in0.0 mm 0.00 in0.0 mm
04:08 PM 89.8°F32.1°C 71.4°F21.9°C 55% 4.9 mph S7.9 kmh S 8.9 mph14.3 kmh 29.90 in1012.5 mb 0.00 in0.0 mm 0.00 in0.0 mm 0.00 in0.0 mm
04:03 PM 90.0°F32.2°C 71.1°F21.7°C 54% 4.9 mph SE7.9 kmh SE 11.0 mph17.7 kmh 29.90 in1012.5 mb 0.00 in0.0 mm 0.00 in0.0 mm 0.00 in0.0 mm
03:58 PM 90.5°F32.5°C 71.6°F22.0°C 54% 4.9 mph SSE7.9 kmh SSE 14.1 mph22.7 kmh 29.90 in1012.5 mb 0.00 in0.0 mm 0.00 in0.0 mm 0.00 in0.0 mm
03:53 PM 91.0°F32.8°C 71.6°F22.0°C 53% 4.0 mph SSE6.4 kmh SSE 11.0 mph17.7 kmh 29.91 in1012.9 mb 0.00 in0.0 mm 0.00 in0.0 mm 0.00 in0.0 mm
03:48 PM 91.6°F33.1°C 72.0°F22.2°C 53% 2.9 mph SE4.7 kmh SE 10.1 mph16.3 kmh 29.91 in1012.9 mb 0.00 in0.0 mm 0.00 in0.0 mm 0.00 in0.0 mm
03:43 PM 91.8°F33.2°C 72.1°F22.3°C 53% 2.9 mph SE4.7 kmh SE 12.1 mph19.5 kmh 29.91 in1012.9 mb 0.00 in0.0 mm 0.00 in0.0 mm 0.00 in0.0 mm
03:38 PM 91.8°F33.2°C 72.1°F22.3°C 53% 4.9 mph SSE7.9 kmh SSE 11.0 mph17.7 kmh 29.91 in1012.9 mb 0.00 in0.0 mm 0.00 in0.0 mm 0.00 in0.0 mm
03:33 PM 91.9°F33.3°C 71.2°F21.8°C 51% 4.9 mph SSW7.9 kmh SSW 10.1 mph16.3 kmh 29.91 in1012.9 mb 0.00 in0.0 mm 0.00 in0.0 mm 0.00 in0.0 mm
03:28 PM 92.1°F33.4°C 72.0°F22.2°C 52% 4.0 mph S6.4 kmh S 11.0 mph17.7 kmh 29.91 in1012.9 mb 0.00 in0.0 mm 0.00 in0.0 mm 0.00 in0.0 mm
03:23 PM 91.9°F33.3°C 72.3°F22.4°C 53% 4.0 mph S6.4 kmh S 8.1 mph13.0 kmh 29.91 in1012.9 mb 0.00 in0.0 mm 0.00 in0.0 mm 0.00 in0.0 mm
03:18 PM 91.9°F33.3°C 71.8°F22.1°C 52% 2.9 mph S4.7 kmh S 14.1 mph22.7 kmh 29.92 in1013.2 mb 0.00 in0.0 mm 0.00 in0.0 mm 0.00 in0.0 mm
03:13 PM 91.9°F33.3°C 72.9°F22.7°C 54% 2.0 mph S3.2 kmh S 6.0 mph9.7 kmh 29.92 in1013.2 mb 0.00 in0.0 mm 0.00 in0.0 mm 0.00 in0.0 mm
03:07 PM 91.4°F33.0°C 72.3°F22.4°C 54% 2.9 mph S4.7 kmh S 11.0 mph17.7 kmh 29.92 in1013.2 mb 0.00 in0.0 mm 0.00 in0.0 mm 0.00 in0.0 mm
03:02 PM 90.9°F32.7°C 72.0°F22.2°C 54% 2.9 mph S4.7 kmh S 8.1 mph13.0 kmh 29.92 in1013.2 mb 0.00 in0.0 mm 0.00 in0.0 mm 0.00 in0.0 mm
02:57 PM 90.9°F32.7°C 72.0°F22.2°C 54% 4.9 mph S7.9 kmh S 11.0 mph17.7 kmh 29.93 in1013.5 mb 0.00 in0.0 mm 0.00 in0.0 mm 0.00 in0.0 mm
02:52 PM 90.7°F32.6°C 71.2°F21.8°C 53% 4.9 mph S7.9 kmh S 11.0 mph17.7 kmh 29.93 in1013.5 mb 0.00 in0.0 mm 0.00 in0.0 mm 0.00 in0.0 mm
02:47 PM 90.9°F32.7°C 71.4°F21.9°C 53% 4.9 mph SSE7.9 kmh SSE 11.0 mph17.7 kmh 29.93 in1013.5 mb 0.00 in0.0 mm 0.00 in0.0 mm 0.00 in0.0 mm
02:42 PM 90.9°F32.7°C 72.5°F22.5°C 55% 4.0 mph SW6.4 kmh SW 12.1 mph19.5 kmh 29.93 in1013.5 mb 0.00 in0.0 mm 0.00 in0.0 mm 0.00 in0.0 mm
02:37 PM 90.3°F32.4°C 72.5°F22.5°C 56% 4.0 mph S6.4 kmh S 12.1 mph19.5 kmh 29.93 in1013.5 mb 0.00 in0.0 mm 0.00 in0.0 mm 0.00 in0.0 mm
02:32 PM 90.1°F32.3°C 71.8°F22.1°C 55% 4.0 mph S6.4 kmh S 14.1 mph22.7 kmh 29.94 in1013.9 mb 0.00 in0.0 mm 0.00 in0.0 mm 0.00 in0.0 mm
02:27 PM 90.3°F32.4°C 72.0°F22.2°C 55% 2.9 mph SSE4.7 kmh SSE 13.0 mph20.9 kmh 29.94 in1013.9 mb 0.00 in0.0 mm 0.00 in0.0 mm 0.00 in0.0 mm
02:22 PM 90.0°F32.2°C 72.1°F22.3°C 56% 2.9 mph S4.7 kmh S 12.1 mph19.5 kmh 29.94 in1013.9 mb 0.00 in0.0 mm 0.00 in0.0 mm 0.00 in0.0 mm
02:17 PM 90.1°F32.3°C 71.2°F21.8°C 54% 2.9 mph SSE4.7 kmh SSE 10.1 mph16.3 kmh 29.94 in1013.9 mb 0.00 in0.0 mm 0.00 in0.0 mm 0.00 in0.0 mm
02:12 PM 90.9°F32.7°C 72.5°F22.5°C 55% 2.9 mph S4.7 kmh S 11.0 mph17.7 kmh 29.95 in1014.2 mb 0.00 in0.0 mm 0.00 in0.0 mm 0.00 in0.0 mm
02:07 PM 90.9°F32.7°C 72.0°F22.2°C 54% 2.9 mph SSW4.7 kmh SSW 8.9 mph14.3 kmh 29.95 in1014.2 mb 0.00 in0.0 mm 0.00 in0.0 mm 0.00 in0.0 mm
02:02 PM 90.3°F32.4°C 73.0°F22.8°C 57% 2.0 mph SSE3.2 kmh SSE 12.1 mph19.5 kmh 29.95 in1014.2 mb 0.00 in0.0 mm 0.00 in0.0 mm 0.00 in0.0 mm
01:57 PM 90.0°F32.2°C 72.7°F22.6°C 57% 2.9 mph S4.7 kmh S 12.1 mph19.5 kmh 29.95 in1014.2 mb 0.00 in0.0 mm 0.00 in0.0 mm 0.00 in0.0 mm
01:52 PM 89.6°F32.0°C 72.3°F22.4°C 57% 4.0 mph S6.4 kmh S 13.0 mph20.9 kmh 29.96 in1014.6 mb 0.00 in0.0 mm 0.00 in0.0 mm 0.00 in0.0 mm
01:47 PM 89.4°F31.9°C 72.1°F22.3°C 57% 4.0 mph SSE6.4 kmh SSE 10.1 mph16.3 kmh 29.96 in1014.6 mb 0.00 in0.0 mm 0.00 in0.0 mm 0.00 in0.0 mm
01:42 PM 89.2°F31.8°C 72.0°F22.2°C 57% 4.0 mph S6.4 kmh S 11.0 mph17.7 kmh 29.96 in1014.6 mb 0.00 in0.0 mm 0.00 in0.0 mm 0.00 in0.0 mm
01:37 PM 88.9°F31.6°C 72.7°F22.6°C 59% 4.0 mph SSE6.4 kmh SSE 12.1 mph19.5 kmh 29.96 in1014.6 mb 0.00 in0.0 mm 0.00 in0.0 mm 0.00 in0.0 mm
01:32 PM 88.7°F31.5°C 72.0°F22.2°C 58% 4.0 mph S6.4 kmh S 11.0 mph17.7 kmh 29.96 in1014.6 mb 0.00 in0.0 mm 0.00 in0.0 mm 0.00 in0.0 mm
01:27 PM 88.3°F31.3°C 71.2°F21.8°C 57% 4.9 mph S7.9 kmh S 12.1 mph19.5 kmh 29.96 in1014.6 mb 0.00 in0.0 mm 0.00 in0.0 mm 0.00 in0.0 mm
01:22 PM 88.5°F31.4°C 71.4°F21.9°C 57% 4.0 mph S6.4 kmh S 8.1 mph13.0 kmh 29.96 in1014.6 mb 0.00 in0.0 mm 0.00 in0.0 mm 0.00 in0.0 mm
01:17 PM 88.5°F31.4°C 70.9°F21.6°C 56% 4.0 mph S6.4 kmh S 8.1 mph13.0 kmh 29.96 in1014.6 mb 0.00 in0.0 mm 0.00 in0.0 mm 0.00 in0.0 mm
01:12 PM 88.3°F31.3°C 71.2°F21.8°C 57% 4.9 mph SSW7.9 kmh SSW 13.0 mph20.9 kmh 29.96 in1014.6 mb 0.00 in0.0 mm 0.00 in0.0 mm 0.00 in0.0 mm
01:06 PM 88.7°F31.5°C 71.4°F21.9°C 57% 4.9 mph SSW7.9 kmh SSW 15.0 mph24.1 kmh 29.96 in1014.6 mb 0.00 in0.0 mm 0.00 in0.0 mm 0.00 in0.0 mm
01:01 PM 88.5°F31.4°C 71.4°F21.9°C 57% 4.0 mph SSW6.4 kmh SSW 10.1 mph16.3 kmh 29.97 in1014.9 mb 0.00 in0.0 mm 0.00 in0.0 mm 0.00 in0.0 mm
12:56 PM 88.7°F31.5°C 72.0°F22.2°C 58% 2.9 mph S4.7 kmh S 14.1 mph22.7 kmh 29.97 in1014.9 mb 0.00 in0.0 mm 0.00 in0.0 mm 0.00 in0.0 mm
12:51 PM 88.2°F31.2°C 72.0°F22.2°C 59% 2.9 mph S4.7 kmh S 12.1 mph19.5 kmh 29.97 in1014.9 mb 0.00 in0.0 mm 0.00 in0.0 mm 0.00 in0.0 mm
12:46 PM 88.2°F31.2°C 71.6°F22.0°C 58% 2.9 mph S4.7 kmh S 10.1 mph16.3 kmh 29.97 in1014.9 mb 0.00 in0.0 mm 0.00 in0.0 mm 0.00 in0.0 mm
12:41 PM 88.0°F31.1°C 71.4°F21.9°C 58% 2.9 mph SW4.7 kmh SW 11.0 mph17.7 kmh 29.97 in1014.9 mb 0.00 in0.0 mm 0.00 in0.0 mm 0.00 in0.0 mm
12:36 PM 87.4°F30.8°C 72.3°F22.4°C 61% 2.9 mph SSE4.7 kmh SSE 13.0 mph20.9 kmh 29.97 in1014.9 mb 0.00 in0.0 mm 0.00 in0.0 mm 0.00 in0.0 mm
12:31 PM 87.3°F30.7°C 71.6°F22.0°C 60% 2.9 mph SW4.7 kmh SW 13.0 mph20.9 kmh 29.97 in1014.9 mb 0.00 in0.0 mm 0.00 in0.0 mm 0.00 in0.0 mm
12:26 PM 86.7°F30.4°C 72.7°F22.6°C 63% 2.9 mph S4.7 kmh S 6.9 mph11.1 kmh 29.98 in1015.2 mb 0.00 in0.0 mm 0.00 in0.0 mm 0.00 in0.0 mm
12:21 PM 86.7°F30.4°C 71.6°F22.0°C 61% 4.0 mph SW6.4 kmh SW 10.1 mph16.3 kmh 29.98 in1015.2 mb 0.00 in0.0 mm 0.00 in0.0 mm 0.00 in0.0 mm
12:16 PM 86.7°F30.4°C 71.2°F21.8°C 60% 4.9 mph SSW7.9 kmh SSW 11.0 mph17.7 kmh 29.98 in1015.2 mb 0.00 in0.0 mm 0.00 in0.0 mm 0.00 in0.0 mm
12:11 PM 87.1°F30.6°C 71.1°F21.7°C 59% 4.0 mph SSW6.4 kmh SSW 12.1 mph19.5 kmh 29.98 in1015.2 mb 0.00 in0.0 mm 0.00 in0.0 mm 0.00 in0.0 mm
12:06 PM 86.9°F30.5°C 70.9°F21.6°C 59% 4.0 mph S6.4 kmh S 11.0 mph17.7 kmh 29.98 in1015.2 mb 0.00 in0.0 mm 0.00 in0.0 mm 0.00 in0.0 mm
12:01 PM 86.7°F30.4°C 71.2°F21.8°C 60% 4.0 mph SW6.4 kmh SW 11.0 mph17.7 kmh 29.98 in1015.2 mb 0.00 in0.0 mm 0.00 in0.0 mm 0.00 in0.0 mm
11:56 AM 86.7°F30.4°C 71.2°F21.8°C 60% 4.0 mph SSW6.4 kmh SSW 15.0 mph24.1 kmh 29.98 in1015.2 mb 0.00 in0.0 mm 0.00 in0.0 mm 0.00 in0.0 mm
11:51 AM 86.5°F30.3°C 71.1°F21.7°C 60% 4.0 mph S6.4 kmh S 12.1 mph19.5 kmh 29.98 in1015.2 mb 0.00 in0.0 mm 0.00 in0.0 mm 0.00 in0.0 mm
11:46 AM 86.2°F30.1°C 72.1°F22.3°C 63% 2.9 mph SSE4.7 kmh SSE 8.1 mph13.0 kmh 29.98 in1015.2 mb 0.00 in0.0 mm 0.00 in0.0 mm 0.00 in0.0 mm
11:40 AM 85.8°F29.9°C 71.8°F22.1°C 63% 4.0 mph SSW6.4 kmh SSW 10.1 mph16.3 kmh 29.98 in1015.2 mb 0.00 in0.0 mm 0.00 in0.0 mm 0.00 in0.0 mm
11:35 AM 85.6°F29.8°C 72.1°F22.3°C 64% 4.9 mph S7.9 kmh S 11.0 mph17.7 kmh 29.98 in1015.2 mb 0.00 in0.0 mm 0.00 in0.0 mm 0.00 in0.0 mm
11:30 AM 85.3°F29.6°C 71.2°F21.8°C 63% 6.0 mph S9.7 kmh S 16.1 mph25.9 kmh 29.98 in1015.2 mb 0.00 in0.0 mm 0.00 in0.0 mm 0.00 in0.0 mm
11:25 AM 84.9°F29.4°C 71.4°F21.9°C 64% 6.0 mph SSE9.7 kmh SSE 13.0 mph20.9 kmh 29.98 in1015.2 mb 0.00 in0.0 mm 0.00 in0.0 mm 0.00 in0.0 mm
11:20 AM 84.9°F29.4°C 71.4°F21.9°C 64% 4.9 mph SSE7.9 kmh SSE 16.1 mph25.9 kmh 29.98 in1015.2 mb 0.00 in0.0 mm 0.00 in0.0 mm 0.00 in0.0 mm
11:15 AM 84.7°F29.3°C 71.6°F22.0°C 65% 4.0 mph S6.4 kmh S 13.0 mph20.9 kmh 29.98 in1015.2 mb 0.00 in0.0 mm 0.00 in0.0 mm 0.00 in0.0 mm
11:10 AM 84.6°F29.2°C 71.4°F21.9°C 65% 4.0 mph S6.4 kmh S 15.0 mph24.1 kmh 29.98 in1015.2 mb 0.00 in0.0 mm 0.00 in0.0 mm 0.00 in0.0 mm
11:05 AM 84.4°F29.1°C 71.8°F22.1°C 66% 2.9 mph S4.7 kmh S 8.1 mph13.0 kmh 29.98 in1015.2 mb 0.00 in0.0 mm 0.00 in0.0 mm 0.00 in0.0 mm
11:00 AM 84.4°F29.1°C 71.8°F22.1°C 66% 2.9 mph SSW4.7 kmh SSW 11.0 mph17.7 kmh 29.98 in1015.2 mb 0.00 in0.0 mm 0.00 in0.0 mm 0.00 in0.0 mm
10:55 AM 84.0°F28.9°C 71.4°F21.9°C 66% 2.9 mph SSE4.7 kmh SSE 8.9 mph14.3 kmh 29.98 in1015.2 mb 0.00 in0.0 mm 0.00 in0.0 mm 0.00 in0.0 mm
10:50 AM 83.8°F28.8°C 72.5°F22.5°C 69% 2.9 mph S4.7 kmh S 11.0 mph17.7 kmh 29.98 in1015.2 mb 0.00 in0.0 mm 0.00 in0.0 mm 0.00 in0.0 mm
10:45 AM 83.5°F28.6°C 71.8°F22.1°C 68% 4.0 mph SSE6.4 kmh SSE 11.0 mph17.7 kmh 29.97 in1014.9 mb 0.00 in0.0 mm 0.00 in0.0 mm 0.00 in0.0 mm
10:40 AM 83.3°F28.5°C 71.6°F22.0°C 68% 4.0 mph SSE6.4 kmh SSE 13.0 mph20.9 kmh 29.98 in1015.2 mb 0.00 in0.0 mm 0.00 in0.0 mm 0.00 in0.0 mm
10:35 AM 83.1°F28.4°C 71.4°F21.9°C 68% 2.9 mph SSE4.7 kmh SSE 11.0 mph17.7 kmh 29.98 in1015.2 mb 0.00 in0.0 mm 0.00 in0.0 mm 0.00 in0.0 mm
10:30 AM 82.8°F28.2°C 71.6°F22.0°C 69% 2.9 mph S4.7 kmh S 13.0 mph20.9 kmh 29.98 in1015.2 mb 0.00 in0.0 mm 0.00 in0.0 mm 0.00 in0.0 mm
10:25 AM 82.2°F27.9°C 71.4°F21.9°C 70% 4.0 mph S6.4 kmh S 10.1 mph16.3 kmh 29.98 in1015.2 mb 0.00 in0.0 mm 0.00 in0.0 mm 0.00 in0.0 mm
10:20 AM 81.9°F27.7°C 71.6°F22.0°C 71% 4.0 mph S6.4 kmh S 11.0 mph17.7 kmh 29.98 in1015.2 mb 0.00 in0.0 mm 0.00 in0.0 mm 0.00 in0.0 mm
10:15 AM 81.3°F27.4°C 71.4°F21.9°C 72% 4.9 mph S7.9 kmh S 12.1 mph19.5 kmh 29.98 in1015.2 mb 0.00 in0.0 mm 0.00 in0.0 mm 0.00 in0.0 mm
10:10 AM 81.0°F27.2°C 71.1°F21.7°C 72% 4.9 mph SSW7.9 kmh SSW 13.0 mph20.9 kmh 29.98 in1015.2 mb 0.00 in0.0 mm 0.00 in0.0 mm 0.00 in0.0 mm
10:05 AM 80.8°F27.1°C 71.2°F21.8°C 73% 4.9 mph SE7.9 kmh SE 12.1 mph19.5 kmh 29.98 in1015.2 mb 0.00 in0.0 mm 0.00 in0.0 mm 0.00 in0.0 mm
10:00 AM 80.4°F26.9°C 70.9°F21.6°C 73% 4.0 mph S6.4 kmh S 16.1 mph25.9 kmh 29.97 in1014.9 mb 0.00 in0.0 mm 0.00 in0.0 mm 0.00 in0.0 mm
09:55 AM 80.1°F26.7°C 71.4°F21.9°C 75% 4.0 mph SSE6.4 kmh SSE 11.0 mph17.7 kmh 29.98 in1015.2 mb 0.00 in0.0 mm 0.00 in0.0 mm 0.00 in0.0 mm
09:50 AM 79.9°F26.6°C 70.9°F21.6°C 74% 4.9 mph S7.9 kmh S 11.0 mph17.7 kmh 29.98 in1015.2 mb 0.00 in0.0 mm 0.00 in0.0 mm 0.00 in0.0 mm
09:45 AM 79.7°F26.5°C 71.1°F21.7°C 75% 4.0 mph SSE6.4 kmh SSE 13.0 mph20.9 kmh 29.97 in1014.9 mb 0.00 in0.0 mm 0.00 in0.0 mm 0.00 in0.0 mm
09:40 AM 79.5°F26.4°C 71.2°F21.8°C 76% 2.9 mph SSE4.7 kmh SSE 11.0 mph17.7 kmh 29.97 in1014.9 mb 0.00 in0.0 mm 0.00 in0.0 mm 0.00 in0.0 mm
09:35 AM 79.2°F26.2°C 70.9°F21.6°C 76% 2.9 mph S4.7 kmh S 11.0 mph17.7 kmh 29.98 in1015.2 mb 0.00 in0.0 mm 0.00 in0.0 mm 0.00 in0.0 mm
09:30 AM 79.0°F26.1°C 70.7°F21.5°C 76% 2.9 mph S4.7 kmh S 12.1 mph19.5 kmh 29.98 in1015.2 mb 0.00 in0.0 mm 0.00 in0.0 mm 0.00 in0.0 mm
09:25 AM 78.6°F25.9°C 70.9°F21.6°C 77% 4.0 mph S6.4 kmh S 10.1 mph16.3 kmh 29.98 in1015.2 mb 0.00 in0.0 mm 0.00 in0.0 mm 0.00 in0.0 mm
09:20 AM 78.4°F25.8°C 70.7°F21.5°C 77% 4.0 mph S6.4 kmh S 11.0 mph17.7 kmh 29.98 in1015.2 mb 0.00 in0.0 mm 0.00 in0.0 mm 0.00 in0.0 mm
09:15 AM 78.4°F25.8°C 70.7°F21.5°C 77% 4.0 mph S6.4 kmh S 11.0 mph17.7 kmh 29.98 in1015.2 mb 0.00 in0.0 mm 0.00 in0.0 mm 0.00 in0.0 mm
09:10 AM 78.4°F25.8°C 70.2°F21.2°C 76% 4.0 mph SSW6.4 kmh SSW 11.0 mph17.7 kmh 29.98 in1015.2 mb 0.00 in0.0 mm 0.00 in0.0 mm 0.00 in0.0 mm
09:05 AM 78.6°F25.9°C 70.3°F21.3°C 76% 2.0 mph SSE3.2 kmh SSE 11.0 mph17.7 kmh 29.98 in1015.2 mb 0.00 in0.0 mm 0.00 in0.0 mm 0.00 in0.0 mm
08:59 AM 78.4°F25.8°C 71.1°F21.7°C 78% 0.9 mph S1.4 kmh S 6.0 mph9.7 kmh 29.98 in1015.2 mb 0.00 in0.0 mm 0.00 in0.0 mm 0.00 in0.0 mm
08:54 AM 78.1°F25.6°C 71.1°F21.7°C 79% 0.9 mph SSW1.4 kmh SSW 10.1 mph16.3 kmh 29.98 in1015.2 mb 0.00 in0.0 mm 0.00 in0.0 mm 0.00 in0.0 mm
08:49 AM 77.7°F25.4°C 71.1°F21.7°C 80% 0.9 mph S1.4 kmh S 6.9 mph11.1 kmh 29.98 in1015.2 mb 0.00 in0.0 mm 0.00 in0.0 mm 0.00 in0.0 mm
08:44 AM 77.4°F25.2°C 70.7°F21.5°C 80% Calm Calm 6.0 mph9.7 kmh 29.98 in1015.2 mb 0.00 in0.0 mm 0.00 in0.0 mm 0.00 in0.0 mm
08:39 AM 77.2°F25.1°C 71.2°F21.8°C 82% 0.9 mph SW1.4 kmh SW 4.0 mph6.4 kmh 29.98 in1015.2 mb 0.00 in0.0 mm 0.00 in0.0 mm 0.00 in0.0 mm
08:34 AM 76.6°F24.8°C 70.7°F21.5°C 82% 0.9 mph SSE1.4 kmh SSE 6.9 mph11.1 kmh 29.98 in1015.2 mb 0.00 in0.0 mm 0.00 in0.0 mm 0.00 in0.0 mm
08:29 AM 76.3°F24.6°C 70.7°F21.5°C 83% 0.9 mph S1.4 kmh S 4.9 mph7.9 kmh 29.97 in1014.9 mb 0.00 in0.0 mm 0.00 in0.0 mm 0.00 in0.0 mm
08:24 AM 75.9°F24.4°C 70.3°F21.3°C 83% 2.0 mph SSE3.2 kmh SSE 8.1 mph13.0 kmh 29.97 in1014.9 mb 0.00 in0.0 mm 0.00 in0.0 mm 0.00 in0.0 mm
08:19 AM 75.7°F24.3°C 70.2°F21.2°C 83% 2.0 mph S3.2 kmh S 10.1 mph16.3 kmh 29.97 in1014.9 mb 0.00 in0.0 mm 0.00 in0.0 mm 0.00 in0.0 mm
08:14 AM 75.4°F24.1°C 70.5°F21.4°C 85% 2.0 mph S3.2 kmh S 8.1 mph13.0 kmh 29.96 in1014.6 mb 0.00 in0.0 mm 0.00 in0.0 mm 0.00 in0.0 mm
08:09 AM 75.0°F23.9°C 70.2°F21.2°C 85% 2.9 mph S4.7 kmh S 10.1 mph16.3 kmh 29.96 in1014.6 mb 0.00 in0.0 mm 0.00 in0.0 mm 0.00 in0.0 mm
08:04 AM 74.8°F23.8°C 70.3°F21.3°C 86% 2.9 mph ESE4.7 kmh ESE 14.1 mph22.7 kmh 29.96 in1014.6 mb 0.00 in0.0 mm 0.00 in0.0 mm 0.00 in0.0 mm
07:59 AM 74.5°F23.6°C 70.0°F21.1°C 86% 2.9 mph S4.7 kmh S 10.1 mph16.3 kmh 29.96 in1014.6 mb 0.00 in0.0 mm 0.00 in0.0 mm 0.00 in0.0 mm
07:54 AM 74.1°F23.4°C 70.0°F21.1°C 87% 2.9 mph S4.7 kmh S 8.9 mph14.3 kmh 29.96 in1014.6 mb 0.00 in0.0 mm 0.00 in0.0 mm 0.00 in0.0 mm
07:49 AM 73.9°F23.3°C 69.8°F21.0°C 87% 2.9 mph SSE4.7 kmh SSE 11.0 mph17.7 kmh 29.96 in1014.6 mb 0.00 in0.0 mm 0.00 in0.0 mm 0.00 in0.0 mm
07:44 AM 73.6°F23.1°C 69.8°F21.0°C 88% 2.9 mph SE4.7 kmh SE 10.1 mph16.3 kmh 29.96 in1014.6 mb 0.00 in0.0 mm 0.00 in0.0 mm 0.00 in0.0 mm
07:39 AM 73.4°F23.0°C 69.6°F20.9°C 88% 4.0 mph S6.4 kmh S 11.0 mph17.7 kmh 29.96 in1014.6 mb 0.00 in0.0 mm 0.00 in0.0 mm 0.00 in0.0 mm
07:34 AM 73.2°F22.9°C 69.4°F20.8°C 88% 2.9 mph SSW4.7 kmh SSW 8.9 mph14.3 kmh 29.95 in1014.2 mb 0.00 in0.0 mm 0.00 in0.0 mm 0.00 in0.0 mm
07:29 AM 73.0°F22.8°C 69.6°F20.9°C 89% 2.9 mph S4.7 kmh S 8.9 mph14.3 kmh 29.95 in1014.2 mb 0.00 in0.0 mm 0.00 in0.0 mm 0.00 in0.0 mm
07:24 AM 72.9°F22.7°C 69.4°F20.8°C 89% 2.9 mph SSE4.7 kmh SSE 6.9 mph11.1 kmh 29.95 in1014.2 mb 0.00 in0.0 mm 0.00 in0.0 mm 0.00 in0.0 mm
07:19 AM 72.9°F22.7°C 69.4°F20.8°C 89% 2.9 mph SSW4.7 kmh SSW 8.9 mph14.3 kmh 29.95 in1014.2 mb 0.00 in0.0 mm 0.00 in0.0 mm 0.00 in0.0 mm
07:14 AM 72.7°F22.6°C 69.3°F20.7°C 89% 2.0 mph S3.2 kmh S 6.9 mph11.1 kmh 29.95 in1014.2 mb 0.00 in0.0 mm 0.00 in0.0 mm 0.00 in0.0 mm
07:09 AM 72.7°F22.6°C 69.3°F20.7°C 89% 0.9 mph S1.4 kmh S 8.9 mph14.3 kmh 29.95 in1014.2 mb 0.00 in0.0 mm 0.00 in0.0 mm 0.00 in0.0 mm
07:04 AM 72.7°F22.6°C 69.3°F20.7°C 89% 0.9 mph SSW1.4 kmh SSW 4.0 mph6.4 kmh 29.95 in1014.2 mb 0.00 in0.0 mm 0.00 in0.0 mm 0.00 in0.0 mm
06:59 AM 72.7°F22.6°C 69.3°F20.7°C 89% 0.9 mph S1.4 kmh S 4.9 mph7.9 kmh 29.95 in1014.2 mb 0.00 in0.0 mm 0.00 in0.0 mm 0.00 in0.0 mm
06:53 AM 72.7°F22.6°C 69.3°F20.7°C 89% 0.9 mph SW1.4 kmh SW 8.1 mph13.0 kmh 29.95 in1014.2 mb 0.00 in0.0 mm 0.00 in0.0 mm 0.00 in0.0 mm
06:48 AM 72.7°F22.6°C 69.3°F20.7°C 89% 0.9 mph S1.4 kmh S 8.9 mph14.3 kmh 29.95 in1014.2 mb 0.00 in0.0 mm 0.00 in0.0 mm 0.00 in0.0 mm
06:43 AM 72.7°F22.6°C 69.3°F20.7°C 89% 0.9 mph S1.4 kmh S 4.9 mph7.9 kmh 29.94 in1013.9 mb 0.00 in0.0 mm 0.00 in0.0 mm 0.00 in0.0 mm
06:37 AM 72.9°F22.7°C 69.4°F20.8°C 89% 0.9 mph SSE1.4 kmh SSE 6.9 mph11.1 kmh 29.94 in1013.9 mb 0.00 in0.0 mm 0.00 in0.0 mm 0.00 in0.0 mm
06:32 AM 72.9°F22.7°C 69.1°F20.6°C 88% 0.9 mph SSE1.4 kmh SSE 6.9 mph11.1 kmh 29.95 in1014.2 mb 0.00 in0.0 mm 0.00 in0.0 mm 0.00 in0.0 mm
06:27 AM 73.0°F22.8°C 69.3°F20.7°C 88% 2.0 mph SSE3.2 kmh SSE 6.9 mph11.1 kmh 29.94 in1013.9 mb 0.00 in0.0 mm 0.00 in0.0 mm 0.00 in0.0 mm
06:22 AM 73.0°F22.8°C 69.3°F20.7°C 88% 2.0 mph SSE3.2 kmh SSE 10.1 mph16.3 kmh 29.93 in1013.5 mb 0.00 in0.0 mm 0.00 in0.0 mm 0.00 in0.0 mm
06:17 AM 73.0°F22.8°C 69.3°F20.7°C 88% 0.9 mph S1.4 kmh S 4.9 mph7.9 kmh 29.94 in1013.9 mb 0.00 in0.0 mm 0.00 in0.0 mm 0.00 in0.0 mm
06:12 AM 73.2°F22.9°C 69.4°F20.8°C 88% 0.9 mph S1.4 kmh S 6.9 mph11.1 kmh 29.94 in1013.9 mb 0.00 in0.0 mm 0.00 in0.0 mm 0.00 in0.0 mm
06:06 AM 73.2°F22.9°C 69.8°F21.0°C 89% 0.9 mph S1.4 kmh S 8.1 mph13.0 kmh 29.94 in1013.9 mb 0.00 in0.0 mm 0.00 in0.0 mm 0.00 in0.0 mm
06:01 AM 73.2°F22.9°C 69.4°F20.8°C 88% 2.0 mph S3.2 kmh S 8.9 mph14.3 kmh 29.93 in1013.5 mb 0.00 in0.0 mm 0.00 in0.0 mm 0.00 in0.0 mm
05:56 AM 73.4°F23.0°C 70.0°F21.1°C 89% 2.0 mph SSE3.2 kmh SSE 10.1 mph16.3 kmh 29.93 in1013.5 mb 0.00 in0.0 mm 0.00 in0.0 mm 0.00 in0.0 mm
05:51 AM 73.6°F23.1°C 70.2°F21.2°C 89% 0.9 mph SSW1.4 kmh SSW 6.0 mph9.7 kmh 29.93 in1013.5 mb 0.00 in0.0 mm 0.00 in0.0 mm 0.00 in0.0 mm
05:46 AM 73.6°F23.1°C 70.2°F21.2°C 89% 2.0 mph S3.2 kmh S 8.1 mph13.0 kmh 29.93 in1013.5 mb 0.00 in0.0 mm 0.00 in0.0 mm 0.00 in0.0 mm
05:41 AM 73.6°F23.1°C 70.2°F21.2°C 89% 0.9 mph S1.4 kmh S 8.1 mph13.0 kmh 29.93 in1013.5 mb 0.00 in0.0 mm 0.00 in0.0 mm 0.00 in0.0 mm
05:36 AM 73.8°F23.2°C 70.0°F21.1°C 88% 2.0 mph S3.2 kmh S 8.1 mph13.0 kmh 29.93 in1013.5 mb 0.00 in0.0 mm 0.00 in0.0 mm 0.00 in0.0 mm
05:31 AM 73.8°F23.2°C 70.0°F21.1°C 88% 2.9 mph S4.7 kmh S 8.1 mph13.0 kmh 29.93 in1013.5 mb 0.00 in0.0 mm 0.00 in0.0 mm 0.00 in0.0 mm
05:26 AM 73.8°F23.2°C 70.0°F21.1°C 88% 2.9 mph SE4.7 kmh SE 10.1 mph16.3 kmh 29.93 in1013.5 mb 0.00 in0.0 mm 0.00 in0.0 mm 0.00 in0.0 mm
05:21 AM 73.9°F23.3°C 70.2°F21.2°C 88% 2.9 mph SSE4.7 kmh SSE 13.0 mph20.9 kmh 29.93 in1013.5 mb 0.00 in0.0 mm 0.00 in0.0 mm 0.00 in0.0 mm
05:16 AM 73.9°F23.3°C 70.2°F21.2°C 88% 2.0 mph SSW3.2 kmh SSW 12.1 mph19.5 kmh 29.93 in1013.5 mb 0.00 in0.0 mm 0.00 in0.0 mm 0.00 in0.0 mm
05:11 AM 73.9°F23.3°C 69.8°F21.0°C 87% 0.9 mph S1.4 kmh S 6.9 mph11.1 kmh 29.93 in1013.5 mb 0.00 in0.0 mm 0.00 in0.0 mm 0.00 in0.0 mm
05:05 AM 73.9°F23.3°C 69.8°F21.0°C 87% 0.9 mph S1.4 kmh S 8.1 mph13.0 kmh 29.93 in1013.5 mb 0.00 in0.0 mm 0.00 in0.0 mm 0.00 in0.0 mm
05:00 AM 74.1°F23.4°C 70.0°F21.1°C 87% 2.0 mph SSW3.2 kmh SSW 8.9 mph14.3 kmh 29.93 in1013.5 mb 0.00 in0.0 mm 0.00 in0.0 mm 0.00 in0.0 mm
04:55 AM 74.1°F23.4°C 70.0°F21.1°C 87% 2.9 mph S4.7 kmh S 8.1 mph13.0 kmh 29.93 in1013.5 mb 0.00 in0.0 mm 0.00 in0.0 mm 0.00 in0.0 mm
04:50 AM 74.1°F23.4°C 70.0°F21.1°C 87% 2.9 mph SSW4.7 kmh SSW 10.1 mph16.3 kmh 29.92 in1013.2 mb 0.00 in0.0 mm 0.00 in0.0 mm 0.00 in0.0 mm
04:45 AM 74.3°F23.5°C 70.2°F21.2°C 87% 2.0 mph S3.2 kmh S 6.9 mph11.1 kmh 29.92 in1013.2 mb 0.00 in0.0 mm 0.00 in0.0 mm 0.00 in0.0 mm
04:40 AM 74.5°F23.6°C 70.0°F21.1°C 86% 2.9 mph SSE4.7 kmh SSE 8.9 mph14.3 kmh 29.93 in1013.5 mb 0.00 in0.0 mm 0.00 in0.0 mm 0.00 in0.0 mm
04:35 AM 74.5°F23.6°C 70.3°F21.3°C 87% 2.9 mph SSE4.7 kmh SSE 8.9 mph14.3 kmh 29.93 in1013.5 mb 0.00 in0.0 mm 0.00 in0.0 mm 0.00 in0.0 mm
04:30 AM 74.5°F23.6°C 70.3°F21.3°C 87% 2.0 mph SSW3.2 kmh SSW 8.9 mph14.3 kmh 29.93 in1013.5 mb 0.00 in0.0 mm 0.00 in0.0 mm 0.00 in0.0 mm
04:25 AM 74.5°F23.6°C 70.3°F21.3°C 87% 2.0 mph S3.2 kmh S 8.9 mph14.3 kmh 29.92 in1013.2 mb 0.00 in0.0 mm 0.00 in0.0 mm 0.00 in0.0 mm
04:20 AM 74.5°F23.6°C 70.7°F21.5°C 88% 2.9 mph S4.7 kmh S 11.0 mph17.7 kmh 29.92 in1013.2 mb 0.00 in0.0 mm 0.00 in0.0 mm 0.00 in0.0 mm
04:15 AM 74.5°F23.6°C 70.7°F21.5°C 88% 2.0 mph SSW3.2 kmh SSW 6.9 mph11.1 kmh 29.92 in1013.2 mb 0.00 in0.0 mm 0.00 in0.0 mm 0.00 in0.0 mm
04:10 AM 74.5°F23.6°C 70.7°F21.5°C 88% 0.9 mph S1.4 kmh S 8.1 mph13.0 kmh 29.92 in1013.2 mb 0.00 in0.0 mm 0.00 in0.0 mm 0.00 in0.0 mm
04:05 AM 74.5°F23.6°C 70.7°F21.5°C 88% 0.9 mph SE1.4 kmh SE 6.0 mph9.7 kmh 29.92 in1013.2 mb 0.00 in0.0 mm 0.00 in0.0 mm 0.00 in0.0 mm
04:00 AM 74.5°F23.6°C 71.1°F21.7°C 89% 0.9 mph S1.4 kmh S 6.0 mph9.7 kmh 29.93 in1013.5 mb 0.00 in0.0 mm 0.00 in0.0 mm 0.00 in0.0 mm
03:55 AM 74.5°F23.6°C 71.1°F21.7°C 89% 0.9 mph S1.4 kmh S 6.9 mph11.1 kmh 29.93 in1013.5 mb 0.00 in0.0 mm 0.00 in0.0 mm 0.00 in0.0 mm
03:50 AM 74.3°F23.5°C 70.9°F21.6°C 89% Calm Calm 4.9 mph7.9 kmh 29.93 in1013.5 mb 0.00 in0.0 mm 0.00 in0.0 mm 0.00 in0.0 mm
03:45 AM 74.3°F23.5°C 70.9°F21.6°C 89% 0.9 mph S1.4 kmh S 0.9 mph1.4 kmh 29.93 in1013.5 mb 0.00 in0.0 mm 0.00 in0.0 mm 0.00 in0.0 mm
03:40 AM 74.3°F23.5°C 70.9°F21.6°C 89% 0.9 mph S1.4 kmh S 8.9 mph14.3 kmh 29.93 in1013.5 mb 0.00 in0.0 mm 0.00 in0.0 mm 0.00 in0.0 mm
03:35 AM 74.7°F23.7°C 70.9°F21.6°C 88% 0.9 mph SSE1.4 kmh SSE 6.0 mph9.7 kmh 29.93 in1013.5 mb 0.00 in0.0 mm 0.00 in0.0 mm 0.00 in0.0 mm
03:29 AM 75.0°F23.9°C 70.9°F21.6°C 87% Calm Calm 6.0 mph9.7 kmh 29.93 in1013.5 mb 0.00 in0.0 mm 0.00 in0.0 mm 0.00 in0.0 mm
03:24 AM 75.4°F24.1°C 70.9°F21.6°C 86% Calm Calm 6.0 mph9.7 kmh 29.93 in1013.5 mb 0.00 in0.0 mm 0.00 in0.0 mm 0.00 in0.0 mm
03:19 AM 75.7°F24.3°C 70.9°F21.6°C 85% 0.9 mph S1.4 kmh S 2.0 mph3.2 kmh 29.93 in1013.5 mb 0.00 in0.0 mm 0.00 in0.0 mm 0.00 in0.0 mm
03:14 AM 75.9°F24.4°C 71.1°F21.7°C 85% 0.9 mph S1.4 kmh S 6.0 mph9.7 kmh 29.93 in1013.5 mb 0.00 in0.0 mm 0.00 in0.0 mm 0.00 in0.0 mm
03:09 AM 76.3°F24.6°C 71.1°F21.7°C 84% 0.9 mph S1.4 kmh S 2.9 mph4.7 kmh 29.93 in1013.5 mb 0.00 in0.0 mm 0.00 in0.0 mm 0.00 in0.0 mm
03:04 AM 76.5°F24.7°C 70.9°F21.6°C 83% 2.0 mph S3.2 kmh S 6.9 mph11.1 kmh 29.93 in1013.5 mb 0.00 in0.0 mm 0.00 in0.0 mm 0.00 in0.0 mm
02:59 AM 76.6°F24.8°C 71.1°F21.7°C 83% 2.0 mph SW3.2 kmh SW 6.9 mph11.1 kmh 29.92 in1013.2 mb 0.00 in0.0 mm 0.00 in0.0 mm 0.00 in0.0 mm
02:54 AM 76.6°F24.8°C 71.1°F21.7°C 83% 2.0 mph S3.2 kmh S 6.9 mph11.1 kmh 29.92 in1013.2 mb 0.00 in0.0 mm 0.00 in0.0 mm 0.00 in0.0 mm
02:49 AM 76.6°F24.8°C 71.1°F21.7°C 83% 0.9 mph SSE1.4 kmh SSE 6.0 mph9.7 kmh 29.92 in1013.2 mb 0.00 in0.0 mm 0.00 in0.0 mm 0.00 in0.0 mm
02:44 AM 76.6°F24.8°C 71.1°F21.7°C 83% Calm Calm 2.9 mph4.7 kmh 29.93 in1013.5 mb 0.00 in0.0 mm 0.00 in0.0 mm 0.00 in0.0 mm
02:38 AM 76.8°F24.9°C 71.2°F21.8°C 83% 0.9 mph SSE1.4 kmh SSE 2.0 mph3.2 kmh 29.93 in1013.5 mb 0.00 in0.0 mm 0.00 in0.0 mm 0.00 in0.0 mm
02:33 AM 76.8°F24.9°C 70.9°F21.6°C 82% Calm Calm 4.9 mph7.9 kmh 29.93 in1013.5 mb 0.00 in0.0 mm 0.00 in0.0 mm 0.00 in0.0 mm
02:28 AM 77.0°F25.0°C 71.1°F21.7°C 82% Calm Calm 0.9 mph1.4 kmh 29.93 in1013.5 mb 0.00 in0.0 mm 0.00 in0.0 mm 0.00 in0.0 mm
02:23 AM 77.2°F25.1°C 71.2°F21.8°C 82% Calm Calm 2.9 mph4.7 kmh 29.93 in1013.5 mb 0.00 in0.0 mm 0.00 in0.0 mm 0.00 in0.0 mm
02:18 AM 77.2°F25.1°C 71.2°F21.8°C 82% Calm Calm 2.9 mph4.7 kmh 29.93 in1013.5 mb 0.00 in0.0 mm 0.00 in0.0 mm 0.00 in0.0 mm
02:13 AM 77.4°F25.2°C 71.1°F21.7°C 81% Calm Calm 4.9 mph7.9 kmh 29.93 in1013.5 mb 0.00 in0.0 mm 0.00 in0.0 mm 0.00 in0.0 mm
02:08 AM 77.4°F25.2°C 71.1°F21.7°C 81% 0.9 mph S1.4 kmh S 4.9 mph7.9 kmh 29.93 in1013.5 mb 0.00 in0.0 mm 0.00 in0.0 mm 0.00 in0.0 mm
02:03 AM 77.5°F25.3°C 71.2°F21.8°C 81% Calm Calm 6.0 mph9.7 kmh 29.93 in1013.5 mb 0.00 in0.0 mm 0.00 in0.0 mm 0.00 in0.0 mm
01:57 AM 77.5°F25.3°C 71.2°F21.8°C 81% 0.9 mph SSE1.4 kmh SSE 4.9 mph7.9 kmh 29.93 in1013.5 mb 0.00 in0.0 mm 0.00 in0.0 mm 0.00 in0.0 mm
01:52 AM 77.5°F25.3°C 71.2°F21.8°C 81% 0.9 mph SSE1.4 kmh SSE 4.0 mph6.4 kmh 29.92 in1013.2 mb 0.00 in0.0 mm 0.00 in0.0 mm 0.00 in0.0 mm
01:47 AM 77.7°F25.4°C 71.4°F21.9°C 81% Calm Calm 0.9 mph1.4 kmh 29.92 in1013.2 mb 0.00 in0.0 mm 0.00 in0.0 mm 0.00 in0.0 mm
01:42 AM 77.9°F25.5°C 71.2°F21.8°C 80% Calm Calm 8.1 mph13.0 kmh 29.92 in1013.2 mb 0.00 in0.0 mm 0.00 in0.0 mm 0.00 in0.0 mm
01:37 AM 78.1°F25.6°C 71.4°F21.9°C 80% Calm Calm 4.9 mph7.9 kmh 29.92 in1013.2 mb 0.00 in0.0 mm 0.00 in0.0 mm 0.00 in0.0 mm
01:32 AM 78.1°F25.6°C 71.4°F21.9°C 80% 0.9 mph SSE1.4 kmh SSE 4.0 mph6.4 kmh 29.92 in1013.2 mb 0.00 in0.0 mm 0.00 in0.0 mm 0.00 in0.0 mm
01:27 AM 78.3°F25.7°C 71.2°F21.8°C 79% 0.9 mph SSE1.4 kmh SSE 6.9 mph11.1 kmh 29.92 in1013.2 mb 0.00 in0.0 mm 0.00 in0.0 mm 0.00 in0.0 mm
01:22 AM 78.3°F25.7°C 71.2°F21.8°C 79% 0.9 mph S1.4 kmh S 8.1 mph13.0 kmh 29.92 in1013.2 mb 0.00 in0.0 mm 0.00 in0.0 mm 0.00 in0.0 mm
01:17 AM 78.4°F25.8°C 71.4°F21.9°C 79% 0.9 mph S1.4 kmh S 8.1 mph13.0 kmh 29.92 in1013.2 mb 0.00 in0.0 mm 0.00 in0.0 mm 0.00 in0.0 mm
01:12 AM 78.4°F25.8°C 71.4°F21.9°C 79% 0.9 mph S1.4 kmh S 6.9 mph11.1 kmh 29.92 in1013.2 mb 0.00 in0.0 mm 0.00 in0.0 mm 0.00 in0.0 mm
01:07 AM 78.4°F25.8°C 71.4°F21.9°C 79% Calm Calm 4.9 mph7.9 kmh 29.92 in1013.2 mb 0.00 in0.0 mm 0.00 in0.0 mm 0.00 in0.0 mm
01:02 AM 78.6°F25.9°C 71.2°F21.8°C 78% Calm Calm 0.9 mph1.4 kmh 29.92 in1013.2 mb 0.00 in0.0 mm 0.00 in0.0 mm 0.00 in0.0 mm
12:57 AM 78.6°F25.9°C 71.2°F21.8°C 78% Calm Calm -- 29.92 in1013.2 mb 0.00 in0.0 mm 0.00 in0.0 mm 0.00 in0.0 mm
12:52 AM 79.0°F26.1°C 71.1°F21.7°C 77% Calm Calm 2.0 mph3.2 kmh 29.92 in1013.2 mb 0.00 in0.0 mm 0.00 in0.0 mm 0.00 in0.0 mm
12:46 AM 79.0°F26.1°C 71.1°F21.7°C 77% Calm Calm 0.9 mph1.4 kmh 29.92 in1013.2 mb 0.00 in0.0 mm 0.00 in0.0 mm 0.00 in0.0 mm
12:41 AM 79.2°F26.2°C 71.2°F21.8°C 77% Calm Calm 2.0 mph3.2 kmh 29.92 in1013.2 mb 0.00 in0.0 mm 0.00 in0.0 mm 0.00 in0.0 mm
12:36 AM 79.2°F26.2°C 70.9°F21.6°C 76% Calm Calm 4.9 mph7.9 kmh 29.92 in1013.2 mb 0.00 in0.0 mm 0.00 in0.0 mm 0.00 in0.0 mm
12:31 AM 79.3°F26.3°C 71.1°F21.7°C 76% 0.9 mph S1.4 kmh S 4.9 mph7.9 kmh 29.92 in1013.2 mb 0.00 in0.0 mm 0.00 in0.0 mm 0.00 in0.0 mm
12:26 AM 79.3°F26.3°C 71.1°F21.7°C 76% 2.0 mph S3.2 kmh S 8.1 mph13.0 kmh 29.92 in1013.2 mb 0.00 in0.0 mm 0.00 in0.0 mm 0.00 in0.0 mm
12:21 AM 79.5°F26.4°C 70.9°F21.6°C 75% 0.9 mph S1.4 kmh S 6.9 mph11.1 kmh 29.92 in1013.2 mb 0.00 in0.0 mm 0.00 in0.0 mm 0.00 in0.0 mm
12:16 AM 79.5°F26.4°C 70.9°F21.6°C 75% Calm Calm 6.0 mph9.7 kmh 29.92 in1013.2 mb 0.00 in0.0 mm 0.00 in0.0 mm 0.00 in0.0 mm
12:11 AM 79.5°F26.4°C 70.9°F21.6°C 75% Calm Calm 4.0 mph6.4 kmh 29.92 in1013.2 mb 0.00 in0.0 mm 0.00 in0.0 mm 0.00 in0.0 mm
12:06 AM 79.7°F26.5°C 70.7°F21.5°C 74% Calm Calm 2.0 mph3.2 kmh 29.92 in1013.2 mb 0.00 in0.0 mm 0.00 in0.0 mm 0.00 in0.0 mm
12:01 AM 79.9°F26.6°C 70.9°F21.6°C 74% 0.9 mph S1.4 kmh S 4.9 mph7.9 kmh 29.92 in1013.2 mb 0.00 in0.0 mm 0.00 in0.0 mm 0.00 in0.0 mm